sensor_id;sensor_type;location;lat;lon;timestamp;P1;durP1;ratioP1;P2;durP2;ratioP2
36009;SDS011;22076;52.182;5.404;2022-10-16T00:01:45;5.18;;;2.13;;
36009;SDS011;22076;52.182;5.404;2022-10-16T00:04:12;6.97;;;1.75;;
36009;SDS011;22076;52.182;5.404;2022-10-16T00:06:39;5.60;;;2.08;;
36009;SDS011;22076;52.182;5.404;2022-10-16T00:09:06;8.93;;;2.17;;
36009;SDS011;22076;52.182;5.404;2022-10-16T00:11:34;9.88;;;2.35;;
36009;SDS011;22076;52.182;5.404;2022-10-16T00:14:02;6.68;;;2.05;;
36009;SDS011;22076;52.182;5.404;2022-10-16T00:16:31;6.63;;;2.22;;
36009;SDS011;22076;52.182;5.404;2022-10-16T00:18:58;4.03;;;2.10;;
36009;SDS011;22076;52.182;5.404;2022-10-16T00:21:25;5.22;;;2.10;;
36009;SDS011;22076;52.182;5.404;2022-10-16T00:23:53;6.00;;;2.10;;
36009;SDS011;22076;52.182;5.404;2022-10-16T00:26:21;7.60;;;2.17;;
36009;SDS011;22076;52.182;5.404;2022-10-16T00:28:48;5.78;;;2.40;;
36009;SDS011;22076;52.182;5.404;2022-10-16T00:31:16;5.13;;;2.15;;
36009;SDS011;22076;52.182;5.404;2022-10-16T00:33:45;5.57;;;2.33;;
36009;SDS011;22076;52.182;5.404;2022-10-16T00:36:12;5.22;;;1.73;;
36009;SDS011;22076;52.182;5.404;2022-10-16T00:38:40;7.22;;;2.22;;
36009;SDS011;22076;52.182;5.404;2022-10-16T00:41:10;4.55;;;2.40;;
36009;SDS011;22076;52.182;5.404;2022-10-16T00:43:41;4.72;;;2.20;;
36009;SDS011;22076;52.182;5.404;2022-10-16T00:46:13;3.70;;;1.90;;
36009;SDS011;22076;52.182;5.404;2022-10-16T00:48:43;4.60;;;2.25;;
36009;SDS011;22076;52.182;5.404;2022-10-16T00:51:13;9.93;;;2.40;;
36009;SDS011;22076;52.182;5.404;2022-10-16T00:53:40;5.07;;;2.50;;
36009;SDS011;22076;52.182;5.404;2022-10-16T00:56:07;5.68;;;2.58;;
36009;SDS011;22076;52.182;5.404;2022-10-16T00:58:33;4.45;;;2.33;;
36009;SDS011;22076;52.182;5.404;2022-10-16T01:01:00;5.32;;;2.22;;
36009;SDS011;22076;52.182;5.404;2022-10-16T01:03:27;4.60;;;2.13;;
36009;SDS011;22076;52.182;5.404;2022-10-16T01:05:59;5.70;;;2.30;;
36009;SDS011;22076;52.182;5.404;2022-10-16T01:08:44;5.72;;;2.50;;
36009;SDS011;22076;52.182;5.404;2022-10-16T01:11:17;7.22;;;2.45;;
36009;SDS011;22076;52.182;5.404;2022-10-16T01:13:50;4.90;;;2.75;;
36009;SDS011;22076;52.182;5.404;2022-10-16T01:16:21;6.20;;;2.20;;
36009;SDS011;22076;52.182;5.404;2022-10-16T01:18:52;9.40;;;2.53;;
36009;SDS011;22076;52.182;5.404;2022-10-16T01:21:26;7.35;;;3.10;;
36009;SDS011;22076;52.182;5.404;2022-10-16T01:23:57;5.57;;;2.20;;
36009;SDS011;22076;52.182;5.404;2022-10-16T01:26:31;4.53;;;2.20;;
36009;SDS011;22076;52.182;5.404;2022-10-16T01:29:06;7.03;;;2.55;;
36009;SDS011;22076;52.182;5.404;2022-10-16T01:31:36;7.55;;;2.85;;
36009;SDS011;22076;52.182;5.404;2022-10-16T01:34:06;5.07;;;2.78;;
36009;SDS011;22076;52.182;5.404;2022-10-16T01:36:37;4.70;;;2.45;;
36009;SDS011;22076;52.182;5.404;2022-10-16T01:39:05;6.45;;;2.38;;
36009;SDS011;22076;52.182;5.404;2022-10-16T01:41:33;7.75;;;2.85;;
36009;SDS011;22076;52.182;5.404;2022-10-16T01:44:02;5.43;;;2.45;;
36009;SDS011;22076;52.182;5.404;2022-10-16T01:46:33;9.23;;;2.60;;
36009;SDS011;22076;52.182;5.404;2022-10-16T01:49:00;5.78;;;2.58;;
36009;SDS011;22076;52.182;5.404;2022-10-16T01:51:28;7.22;;;3.30;;
36009;SDS011;22076;52.182;5.404;2022-10-16T01:53:56;5.82;;;2.30;;
36009;SDS011;22076;52.182;5.404;2022-10-16T01:56:24;8.93;;;2.70;;
36009;SDS011;22076;52.182;5.404;2022-10-16T01:58:53;6.28;;;3.15;;
36009;SDS011;22076;52.182;5.404;2022-10-16T02:01:24;6.85;;;3.25;;
36009;SDS011;22076;52.182;5.404;2022-10-16T02:03:53;6.70;;;3.80;;
36009;SDS011;22076;52.182;5.404;2022-10-16T02:06:21;7.60;;;3.28;;
36009;SDS011;22076;52.182;5.404;2022-10-16T02:08:48;7.22;;;3.00;;
36009;SDS011;22076;52.182;5.404;2022-10-16T02:11:15;5.57;;;3.15;;
36009;SDS011;22076;52.182;5.404;2022-10-16T02:13:42;5.82;;;3.08;;
36009;SDS011;22076;52.182;5.404;2022-10-16T02:16:11;4.60;;;2.80;;
36009;SDS011;22076;52.182;5.404;2022-10-16T02:18:40;7.82;;;3.63;;
36009;SDS011;22076;52.182;5.404;2022-10-16T02:21:09;9.20;;;3.53;;
36009;SDS011;22076;52.182;5.404;2022-10-16T02:23:40;8.40;;;3.63;;
36009;SDS011;22076;52.182;5.404;2022-10-16T02:26:12;8.68;;;3.42;;
36009;SDS011;22076;52.182;5.404;2022-10-16T02:28:41;9.93;;;4.20;;
36009;SDS011;22076;52.182;5.404;2022-10-16T02:31:11;6.15;;;3.45;;
36009;SDS011;22076;52.182;5.404;2022-10-16T02:33:43;7.20;;;3.72;;
36009;SDS011;22076;52.182;5.404;2022-10-16T02:36:11;9.40;;;3.60;;
36009;SDS011;22076;52.182;5.404;2022-10-16T02:38:39;6.80;;;3.90;;
36009;SDS011;22076;52.182;5.404;2022-10-16T02:41:06;6.18;;;3.55;;
36009;SDS011;22076;52.182;5.404;2022-10-16T02:43:33;4.85;;;2.53;;
36009;SDS011;22076;52.182;5.404;2022-10-16T02:46:00;6.53;;;2.80;;
36009;SDS011;22076;52.182;5.404;2022-10-16T02:48:27;8.13;;;3.83;;
36009;SDS011;22076;52.182;5.404;2022-10-16T02:50:55;4.95;;;2.80;;
36009;SDS011;22076;52.182;5.404;2022-10-16T02:53:22;8.07;;;3.55;;
36009;SDS011;22076;52.182;5.404;2022-10-16T02:55:49;5.35;;;3.42;;
36009;SDS011;22076;52.182;5.404;2022-10-16T02:58:18;6.32;;;3.35;;
36009;SDS011;22076;52.182;5.404;2022-10-16T03:00:44;5.90;;;2.97;;
36009;SDS011;22076;52.182;5.404;2022-10-16T03:03:11;5.30;;;3.13;;
36009;SDS011;22076;52.182;5.404;2022-10-16T03:05:38;6.53;;;3.17;;
36009;SDS011;22076;52.182;5.404;2022-10-16T03:08:06;8.20;;;3.22;;
36009;SDS011;22076;52.182;5.404;2022-10-16T03:10:32;6.15;;;2.72;;
36009;SDS011;22076;52.182;5.404;2022-10-16T03:13:01;5.65;;;2.70;;
36009;SDS011;22076;52.182;5.404;2022-10-16T03:15:27;8.48;;;2.78;;
36009;SDS011;22076;52.182;5.404;2022-10-16T03:17:54;5.75;;;2.42;;
36009;SDS011;22076;52.182;5.404;2022-10-16T03:20:21;2.90;;;2.22;;
36009;SDS011;22076;52.182;5.404;2022-10-16T03:22:47;7.15;;;2.75;;
36009;SDS011;22076;52.182;5.404;2022-10-16T03:25:15;2.90;;;2.20;;
36009;SDS011;22076;52.182;5.404;2022-10-16T03:27:43;3.58;;;2.53;;
36009;SDS011;22076;52.182;5.404;2022-10-16T03:30:10;5.47;;;2.70;;
36009;SDS011;22076;52.182;5.404;2022-10-16T03:32:38;4.70;;;2.60;;
36009;SDS011;22076;52.182;5.404;2022-10-16T03:35:04;5.63;;;2.97;;
36009;SDS011;22076;52.182;5.404;2022-10-16T03:37:32;6.13;;;2.83;;
36009;SDS011;22076;52.182;5.404;2022-10-16T03:39:58;3.65;;;2.47;;
36009;SDS011;22076;52.182;5.404;2022-10-16T03:42:26;6.95;;;2.60;;
36009;SDS011;22076;52.182;5.404;2022-10-16T03:44:53;3.92;;;2.83;;
36009;SDS011;22076;52.182;5.404;2022-10-16T03:47:20;4.05;;;2.58;;
36009;SDS011;22076;52.182;5.404;2022-10-16T03:49:50;4.25;;;2.80;;
36009;SDS011;22076;52.182;5.404;2022-10-16T03:52:17;4.82;;;2.33;;
36009;SDS011;22076;52.182;5.404;2022-10-16T03:54:43;5.07;;;2.50;;
36009;SDS011;22076;52.182;5.404;2022-10-16T03:57:10;4.65;;;2.00;;
36009;SDS011;22076;52.182;5.404;2022-10-16T03:59:38;4.43;;;2.10;;
36009;SDS011;22076;52.182;5.404;2022-10-16T04:02:05;6.70;;;2.53;;
36009;SDS011;22076;52.182;5.404;2022-10-16T04:04:31;4.35;;;2.05;;
36009;SDS011;22076;52.182;5.404;2022-10-16T04:06:58;4.07;;;2.60;;
36009;SDS011;22076;52.182;5.404;2022-10-16T04:09:25;3.85;;;1.92;;
36009;SDS011;22076;52.182;5.404;2022-10-16T04:11:56;3.22;;;2.10;;
36009;SDS011;22076;52.182;5.404;2022-10-16T04:14:22;5.53;;;2.25;;
36009;SDS011;22076;52.182;5.404;2022-10-16T04:16:50;2.83;;;1.92;;
36009;SDS011;22076;52.182;5.404;2022-10-16T04:19:17;5.47;;;2.50;;
36009;SDS011;22076;52.182;5.404;2022-10-16T04:21:44;4.40;;;2.67;;
36009;SDS011;22076;52.182;5.404;2022-10-16T04:24:10;3.70;;;2.50;;
36009;SDS011;22076;52.182;5.404;2022-10-16T04:26:37;3.42;;;2.03;;
36009;SDS011;22076;52.182;5.404;2022-10-16T04:29:03;4.78;;;2.25;;
36009;SDS011;22076;52.182;5.404;2022-10-16T04:31:31;3.25;;;2.00;;
36009;SDS011;22076;52.182;5.404;2022-10-16T04:33:59;5.32;;;2.63;;
36009;SDS011;22076;52.182;5.404;2022-10-16T04:36:26;4.43;;;2.33;;
36009;SDS011;22076;52.182;5.404;2022-10-16T04:38:52;5.00;;;2.83;;
36009;SDS011;22076;52.182;5.404;2022-10-16T04:41:19;4.45;;;2.00;;
36009;SDS011;22076;52.182;5.404;2022-10-16T04:43:45;2.40;;;1.63;;
36009;SDS011;22076;52.182;5.404;2022-10-16T04:46:12;5.40;;;2.30;;
36009;SDS011;22076;52.182;5.404;2022-10-16T04:48:38;7.47;;;2.75;;
36009;SDS011;22076;52.182;5.404;2022-10-16T04:51:09;5.53;;;2.20;;
36009;SDS011;22076;52.182;5.404;2022-10-16T04:53:35;4.32;;;1.77;;
36009;SDS011;22076;52.182;5.404;2022-10-16T04:56:02;4.80;;;1.80;;
36009;SDS011;22076;52.182;5.404;2022-10-16T04:58:28;5.65;;;2.67;;
36009;SDS011;22076;52.182;5.404;2022-10-16T05:00:55;3.63;;;2.05;;
36009;SDS011;22076;52.182;5.404;2022-10-16T05:03:22;5.13;;;2.20;;
36009;SDS011;22076;52.182;5.404;2022-10-16T05:05:48;3.80;;;2.13;;
36009;SDS011;22076;52.182;5.404;2022-10-16T05:08:16;6.75;;;2.20;;
36009;SDS011;22076;52.182;5.404;2022-10-16T05:10:43;6.47;;;2.47;;
36009;SDS011;22076;52.182;5.404;2022-10-16T05:13:10;3.40;;;1.73;;
36009;SDS011;22076;52.182;5.404;2022-10-16T05:15:37;6.85;;;2.08;;
36009;SDS011;22076;52.182;5.404;2022-10-16T05:18:04;6.03;;;2.33;;
36009;SDS011;22076;52.182;5.404;2022-10-16T05:20:30;5.38;;;2.28;;
36009;SDS011;22076;52.182;5.404;2022-10-16T05:22:57;4.45;;;1.83;;
36009;SDS011;22076;52.182;5.404;2022-10-16T05:25:25;3.72;;;1.80;;
36009;SDS011;22076;52.182;5.404;2022-10-16T05:27:52;3.78;;;1.88;;
36009;SDS011;22076;52.182;5.404;2022-10-16T05:30:18;2.92;;;2.05;;
36009;SDS011;22076;52.182;5.404;2022-10-16T05:32:46;3.53;;;2.25;;
36009;SDS011;22076;52.182;5.404;2022-10-16T05:35:14;4.38;;;2.28;;
36009;SDS011;22076;52.182;5.404;2022-10-16T05:37:41;8.90;;;2.35;;
36009;SDS011;22076;52.182;5.404;2022-10-16T05:40:08;4.90;;;2.13;;
36009;SDS011;22076;52.182;5.404;2022-10-16T05:42:36;2.67;;;1.60;;
36009;SDS011;22076;52.182;5.404;2022-10-16T05:45:04;4.35;;;2.42;;
36009;SDS011;22076;52.182;5.404;2022-10-16T05:47:31;4.50;;;2.08;;
36009;SDS011;22076;52.182;5.404;2022-10-16T05:49:58;6.63;;;2.70;;
36009;SDS011;22076;52.182;5.404;2022-10-16T05:52:26;6.00;;;2.17;;
36009;SDS011;22076;52.182;5.404;2022-10-16T05:54:53;4.78;;;2.67;;
36009;SDS011;22076;52.182;5.404;2022-10-16T05:57:19;5.65;;;2.42;;
36009;SDS011;22076;52.182;5.404;2022-10-16T05:59:47;7.43;;;2.58;;
36009;SDS011;22076;52.182;5.404;2022-10-16T06:02:14;3.80;;;2.35;;
36009;SDS011;22076;52.182;5.404;2022-10-16T06:04:41;4.60;;;1.92;;
36009;SDS011;22076;52.182;5.404;2022-10-16T06:07:07;6.30;;;1.85;;
36009;SDS011;22076;52.182;5.404;2022-10-16T06:09:34;5.57;;;2.35;;
36009;SDS011;22076;52.182;5.404;2022-10-16T06:12:01;4.45;;;2.50;;
36009;SDS011;22076;52.182;5.404;2022-10-16T06:14:28;10.27;;;2.78;;
36009;SDS011;22076;52.182;5.404;2022-10-16T06:16:56;5.30;;;2.10;;
36009;SDS011;22076;52.182;5.404;2022-10-16T06:19:22;4.07;;;2.83;;
36009;SDS011;22076;52.182;5.404;2022-10-16T06:21:49;4.25;;;2.15;;
36009;SDS011;22076;52.182;5.404;2022-10-16T06:24:16;3.58;;;2.10;;
36009;SDS011;22076;52.182;5.404;2022-10-16T06:26:44;5.00;;;2.35;;
36009;SDS011;22076;52.182;5.404;2022-10-16T06:29:11;5.88;;;3.00;;
36009;SDS011;22076;52.182;5.404;2022-10-16T06:31:38;7.10;;;2.65;;
36009;SDS011;22076;52.182;5.404;2022-10-16T06:34:08;5.18;;;2.83;;
36009;SDS011;22076;52.182;5.404;2022-10-16T06:36:35;7.32;;;2.60;;
36009;SDS011;22076;52.182;5.404;2022-10-16T06:39:02;5.10;;;2.95;;
36009;SDS011;22076;52.182;5.404;2022-10-16T06:41:29;5.82;;;2.60;;
36009;SDS011;22076;52.182;5.404;2022-10-16T06:43:56;3.30;;;2.20;;
36009;SDS011;22076;52.182;5.404;2022-10-16T06:46:24;4.15;;;3.03;;
36009;SDS011;22076;52.182;5.404;2022-10-16T06:48:51;9.10;;;3.08;;
36009;SDS011;22076;52.182;5.404;2022-10-16T06:51:20;5.55;;;2.92;;
36009;SDS011;22076;52.182;5.404;2022-10-16T06:53:48;4.85;;;3.10;;
36009;SDS011;22076;52.182;5.404;2022-10-16T06:56:16;5.20;;;3.10;;
36009;SDS011;22076;52.182;5.404;2022-10-16T06:58:44;2.83;;;2.10;;
36009;SDS011;22076;52.182;5.404;2022-10-16T07:01:11;6.75;;;3.25;;
36009;SDS011;22076;52.182;5.404;2022-10-16T07:03:38;2.28;;;1.73;;
36009;SDS011;22076;52.182;5.404;2022-10-16T07:06:07;4.93;;;2.80;;
36009;SDS011;22076;52.182;5.404;2022-10-16T07:08:39;3.88;;;2.13;;
36009;SDS011;22076;52.182;5.404;2022-10-16T07:11:07;4.63;;;2.83;;
36009;SDS011;22076;52.182;5.404;2022-10-16T07:13:34;8.07;;;2.72;;
36009;SDS011;22076;52.182;5.404;2022-10-16T07:16:04;5.50;;;2.95;;
36009;SDS011;22076;52.182;5.404;2022-10-16T07:18:31;4.13;;;1.88;;
36009;SDS011;22076;52.182;5.404;2022-10-16T07:21:02;8.13;;;2.17;;
36009;SDS011;22076;52.182;5.404;2022-10-16T07:23:29;5.35;;;2.38;;
36009;SDS011;22076;52.182;5.404;2022-10-16T07:25:57;6.75;;;2.70;;
36009;SDS011;22076;52.182;5.404;2022-10-16T07:28:24;4.90;;;2.80;;
36009;SDS011;22076;52.182;5.404;2022-10-16T07:30:50;3.92;;;2.10;;
36009;SDS011;22076;52.182;5.404;2022-10-16T07:33:17;6.68;;;2.35;;
36009;SDS011;22076;52.182;5.404;2022-10-16T07:35:50;3.70;;;1.75;;
36009;SDS011;22076;52.182;5.404;2022-10-16T07:38:18;7.93;;;2.33;;
36009;SDS011;22076;52.182;5.404;2022-10-16T07:40:45;9.20;;;2.42;;
36009;SDS011;22076;52.182;5.404;2022-10-16T07:43:13;3.45;;;1.80;;
36009;SDS011;22076;52.182;5.404;2022-10-16T07:45:46;4.68;;;2.00;;
36009;SDS011;22076;52.182;5.404;2022-10-16T07:48:14;5.53;;;2.15;;
36009;SDS011;22076;52.182;5.404;2022-10-16T07:50:41;7.28;;;1.85;;
36009;SDS011;22076;52.182;5.404;2022-10-16T07:53:07;5.78;;;1.80;;
36009;SDS011;22076;52.182;5.404;2022-10-16T07:55:34;4.63;;;1.65;;
36009;SDS011;22076;52.182;5.404;2022-10-16T07:58:01;3.80;;;1.67;;
36009;SDS011;22076;52.182;5.404;2022-10-16T08:00:29;7.55;;;1.85;;
36009;SDS011;22076;52.182;5.404;2022-10-16T08:02:56;4.45;;;1.85;;
36009;SDS011;22076;52.182;5.404;2022-10-16T08:05:25;8.27;;;2.40;;
36009;SDS011;22076;52.182;5.404;2022-10-16T08:07:51;7.28;;;2.22;;
36009;SDS011;22076;52.182;5.404;2022-10-16T08:10:19;5.28;;;2.83;;
36009;SDS011;22076;52.182;5.404;2022-10-16T08:12:46;6.95;;;2.53;;
36009;SDS011;22076;52.182;5.404;2022-10-16T08:15:16;4.72;;;2.35;;
36009;SDS011;22076;52.182;5.404;2022-10-16T08:17:45;6.57;;;2.58;;
36009;SDS011;22076;52.182;5.404;2022-10-16T08:20:20;7.15;;;3.40;;
36009;SDS011;22076;52.182;5.404;2022-10-16T08:22:47;6.97;;;2.78;;
36009;SDS011;22076;52.182;5.404;2022-10-16T08:25:13;9.23;;;2.50;;
36009;SDS011;22076;52.182;5.404;2022-10-16T08:27:40;5.53;;;2.35;;
36009;SDS011;22076;52.182;5.404;2022-10-16T08:30:08;4.38;;;2.38;;
36009;SDS011;22076;52.182;5.404;2022-10-16T08:32:35;7.93;;;3.13;;
36009;SDS011;22076;52.182;5.404;2022-10-16T08:35:04;6.45;;;2.38;;
36009;SDS011;22076;52.182;5.404;2022-10-16T08:37:31;7.03;;;2.05;;
36009;SDS011;22076;52.182;5.404;2022-10-16T08:39:58;7.32;;;2.25;;
36009;SDS011;22076;52.182;5.404;2022-10-16T08:42:29;7.63;;;2.83;;
36009;SDS011;22076;52.182;5.404;2022-10-16T08:45:14;9.07;;;3.10;;
36009;SDS011;22076;52.182;5.404;2022-10-16T08:47:48;6.38;;;2.45;;
36009;SDS011;22076;52.182;5.404;2022-10-16T08:50:19;8.55;;;2.35;;
36009;SDS011;22076;52.182;5.404;2022-10-16T08:52:50;5.47;;;1.98;;
36009;SDS011;22076;52.182;5.404;2022-10-16T08:55:19;7.72;;;1.88;;
36009;SDS011;22076;52.182;5.404;2022-10-16T08:57:55;5.93;;;2.17;;
36009;SDS011;22076;52.182;5.404;2022-10-16T09:00:22;3.92;;;1.80;;
36009;SDS011;22076;52.182;5.404;2022-10-16T09:02:50;4.40;;;1.90;;
36009;SDS011;22076;52.182;5.404;2022-10-16T09:05:23;5.60;;;1.67;;
36009;SDS011;22076;52.182;5.404;2022-10-16T09:07:59;9.05;;;2.30;;
36009;SDS011;22076;52.182;5.404;2022-10-16T09:10:33;13.20;;;2.17;;
36009;SDS011;22076;52.182;5.404;2022-10-16T09:13:09;7.13;;;1.85;;
36009;SDS011;22076;52.182;5.404;2022-10-16T09:15:43;10.02;;;2.65;;
36009;SDS011;22076;52.182;5.404;2022-10-16T09:18:15;11.20;;;2.60;;
36009;SDS011;22076;52.182;5.404;2022-10-16T09:20:49;4.90;;;2.15;;
36009;SDS011;22076;52.182;5.404;2022-10-16T09:23:17;5.45;;;1.70;;
36009;SDS011;22076;52.182;5.404;2022-10-16T09:25:45;7.50;;;1.65;;
36009;SDS011;22076;52.182;5.404;2022-10-16T09:28:14;6.45;;;2.10;;
36009;SDS011;22076;52.182;5.404;2022-10-16T09:30:41;4.47;;;1.55;;
36009;SDS011;22076;52.182;5.404;2022-10-16T09:33:08;11.57;;;2.20;;
36009;SDS011;22076;52.182;5.404;2022-10-16T09:35:36;3.63;;;1.65;;
36009;SDS011;22076;52.182;5.404;2022-10-16T09:38:05;6.95;;;1.58;;
36009;SDS011;22076;52.182;5.404;2022-10-16T09:40:34;10.82;;;2.60;;
36009;SDS011;22076;52.182;5.404;2022-10-16T09:43:03;6.00;;;1.45;;
36009;SDS011;22076;52.182;5.404;2022-10-16T09:45:39;13.60;;;1.90;;
36009;SDS011;22076;52.182;5.404;2022-10-16T09:48:10;9.55;;;2.28;;
36009;SDS011;22076;52.182;5.404;2022-10-16T09:50:37;8.40;;;1.95;;
36009;SDS011;22076;52.182;5.404;2022-10-16T09:53:08;7.85;;;2.20;;
36009;SDS011;22076;52.182;5.404;2022-10-16T09:58:13;7.85;;;1.98;;
36009;SDS011;22076;52.182;5.404;2022-10-16T10:00:40;9.20;;;1.98;;
36009;SDS011;22076;52.182;5.404;2022-10-16T10:03:09;9.65;;;1.80;;
36009;SDS011;22076;52.182;5.404;2022-10-16T10:05:37;9.73;;;2.50;;
36009;SDS011;22076;52.182;5.404;2022-10-16T10:08:12;8.63;;;2.22;;
36009;SDS011;22076;52.182;5.404;2022-10-16T10:10:44;8.82;;;1.83;;
36009;SDS011;22076;52.182;5.404;2022-10-16T10:13:17;7.53;;;1.98;;
36009;SDS011;22076;52.182;5.404;2022-10-16T10:15:45;12.27;;;2.30;;
36009;SDS011;22076;52.182;5.404;2022-10-16T10:18:15;3.75;;;1.40;;
36009;SDS011;22076;52.182;5.404;2022-10-16T10:20:43;8.93;;;2.20;;
36009;SDS011;22076;52.182;5.404;2022-10-16T10:23:19;6.07;;;2.15;;
36009;SDS011;22076;52.182;5.404;2022-10-16T10:25:49;10.30;;;2.20;;
36009;SDS011;22076;52.182;5.404;2022-10-16T10:28:25;11.82;;;2.42;;
36009;SDS011;22076;52.182;5.404;2022-10-16T10:31:00;6.82;;;2.05;;
36009;SDS011;22076;52.182;5.404;2022-10-16T10:33:36;7.47;;;1.73;;
36009;SDS011;22076;52.182;5.404;2022-10-16T10:36:10;9.38;;;2.17;;
36009;SDS011;22076;52.182;5.404;2022-10-16T10:38:44;5.15;;;1.90;;
36009;SDS011;22076;52.182;5.404;2022-10-16T10:41:18;7.50;;;1.92;;
36009;SDS011;22076;52.182;5.404;2022-10-16T10:44:07;10.38;;;2.33;;
36009;SDS011;22076;52.182;5.404;2022-10-16T10:46:39;8.85;;;2.55;;
36009;SDS011;22076;52.182;5.404;2022-10-16T10:52:07;8.63;;;1.98;;
36009;SDS011;22076;52.182;5.404;2022-10-16T10:54:48;6.13;;;2.15;;
36009;SDS011;22076;52.182;5.404;2022-10-16T10:57:21;10.32;;;2.15;;
36009;SDS011;22076;52.182;5.404;2022-10-16T10:59:52;14.70;;;4.93;;
36009;SDS011;22076;52.182;5.404;2022-10-16T11:02:26;12.10;;;2.75;;
36009;SDS011;22076;52.182;5.404;2022-10-16T11:05:02;6.22;;;1.77;;
36009;SDS011;22076;52.182;5.404;2022-10-16T11:07:37;10.82;;;2.22;;
36009;SDS011;22076;52.182;5.404;2022-10-16T11:10:12;5.55;;;2.10;;
36009;SDS011;22076;52.182;5.404;2022-10-16T11:12:40;6.22;;;1.92;;
36009;SDS011;22076;52.182;5.404;2022-10-16T11:15:11;8.95;;;2.00;;
36009;SDS011;22076;52.182;5.404;2022-10-16T11:17:41;9.63;;;2.40;;
36009;SDS011;22076;52.182;5.404;2022-10-16T11:20:12;8.95;;;2.05;;
36009;SDS011;22076;52.182;5.404;2022-10-16T11:22:41;9.00;;;2.00;;
36009;SDS011;22076;52.182;5.404;2022-10-16T11:25:14;7.68;;;2.00;;
36009;SDS011;22076;52.182;5.404;2022-10-16T11:27:43;10.07;;;2.22;;
36009;SDS011;22076;52.182;5.404;2022-10-16T11:30:14;11.82;;;2.00;;
36009;SDS011;22076;52.182;5.404;2022-10-16T11:32:47;8.80;;;2.25;;
36009;SDS011;22076;52.182;5.404;2022-10-16T11:35:19;10.85;;;1.80;;
36009;SDS011;22076;52.182;5.404;2022-10-16T11:37:49;7.43;;;1.77;;
36009;SDS011;22076;52.182;5.404;2022-10-16T11:40:21;10.70;;;2.03;;
36009;SDS011;22076;52.182;5.404;2022-10-16T11:42:51;10.23;;;2.22;;
36009;SDS011;22076;52.182;5.404;2022-10-16T11:45:24;12.55;;;1.95;;
36009;SDS011;22076;52.182;5.404;2022-10-16T11:47:54;3.88;;;1.63;;
36009;SDS011;22076;52.182;5.404;2022-10-16T11:50:28;9.55;;;1.98;;
36009;SDS011;22076;52.182;5.404;2022-10-16T11:52:59;5.30;;;1.65;;
36009;SDS011;22076;52.182;5.404;2022-10-16T11:55:31;5.15;;;1.70;;
36009;SDS011;22076;52.182;5.404;2022-10-16T11:58:00;9.27;;;1.65;;
36009;SDS011;22076;52.182;5.404;2022-10-16T12:00:30;5.45;;;1.55;;
36009;SDS011;22076;52.182;5.404;2022-10-16T12:03:00;7.25;;;1.80;;
36009;SDS011;22076;52.182;5.404;2022-10-16T12:05:33;4.97;;;1.60;;
36009;SDS011;22076;52.182;5.404;2022-10-16T12:08:06;6.93;;;1.75;;
36009;SDS011;22076;52.182;5.404;2022-10-16T12:10:39;11.35;;;2.10;;
36009;SDS011;22076;52.182;5.404;2022-10-16T12:16:03;3.72;;;1.42;;
36009;SDS011;22076;52.182;5.404;2022-10-16T12:18:31;4.93;;;1.58;;
36009;SDS011;22076;52.182;5.404;2022-10-16T12:20:58;5.03;;;1.48;;
36009;SDS011;22076;52.182;5.404;2022-10-16T12:23:30;7.68;;;1.77;;
36009;SDS011;22076;52.182;5.404;2022-10-16T12:25:59;9.05;;;1.63;;
36009;SDS011;22076;52.182;5.404;2022-10-16T12:28:27;10.93;;;1.90;;
36009;SDS011;22076;52.182;5.404;2022-10-16T12:30:56;10.52;;;1.92;;
36009;SDS011;22076;52.182;5.404;2022-10-16T12:33:28;10.30;;;2.08;;
36009;SDS011;22076;52.182;5.404;2022-10-16T12:35:55;6.85;;;2.03;;
36009;SDS011;22076;52.182;5.404;2022-10-16T12:38:25;9.85;;;2.42;;
36009;SDS011;22076;52.182;5.404;2022-10-16T12:40:55;10.60;;;2.25;;
36009;SDS011;22076;52.182;5.404;2022-10-16T12:43:40;8.10;;;1.70;;
36009;SDS011;22076;52.182;5.404;2022-10-16T12:46:22;7.35;;;1.77;;
36009;SDS011;22076;52.182;5.404;2022-10-16T12:48:50;5.40;;;1.27;;
36009;SDS011;22076;52.182;5.404;2022-10-16T12:51:22;8.38;;;2.10;;
36009;SDS011;22076;52.182;5.404;2022-10-16T12:54:00;11.40;;;2.28;;
36009;SDS011;22076;52.182;5.404;2022-10-16T12:56:31;9.77;;;2.00;;
36009;SDS011;22076;52.182;5.404;2022-10-16T12:59:09;6.68;;;1.42;;
36009;SDS011;22076;52.182;5.404;2022-10-16T13:01:42;7.20;;;1.70;;
36009;SDS011;22076;52.182;5.404;2022-10-16T13:07:29;8.98;;;2.10;;
36009;SDS011;22076;52.182;5.404;2022-10-16T13:10:06;5.28;;;1.92;;
36009;SDS011;22076;52.182;5.404;2022-10-16T13:12:42;6.22;;;1.63;;
36009;SDS011;22076;52.182;5.404;2022-10-16T13:15:28;7.50;;;1.50;;
36009;SDS011;22076;52.182;5.404;2022-10-16T13:18:03;7.70;;;1.50;;
36009;SDS011;22076;52.182;5.404;2022-10-16T13:20:34;7.55;;;1.48;;
36009;SDS011;22076;52.182;5.404;2022-10-16T13:23:04;10.13;;;2.05;;
36009;SDS011;22076;52.182;5.404;2022-10-16T13:25:43;9.27;;;2.10;;
36009;SDS011;22076;52.182;5.404;2022-10-16T13:28:15;8.48;;;1.73;;
36009;SDS011;22076;52.182;5.404;2022-10-16T13:30:50;8.10;;;1.42;;
36009;SDS011;22076;52.182;5.404;2022-10-16T13:33:18;7.85;;;1.63;;
36009;SDS011;22076;52.182;5.404;2022-10-16T13:35:48;9.15;;;1.95;;
36009;SDS011;22076;52.182;5.404;2022-10-16T13:38:17;8.18;;;1.42;;
36009;SDS011;22076;52.182;5.404;2022-10-16T13:40:48;7.55;;;1.75;;
36009;SDS011;22076;52.182;5.404;2022-10-16T13:43:16;7.28;;;1.83;;
36009;SDS011;22076;52.182;5.404;2022-10-16T13:45:53;12.65;;;2.25;;
36009;SDS011;22076;52.182;5.404;2022-10-16T13:48:24;8.68;;;1.92;;
36009;SDS011;22076;52.182;5.404;2022-10-16T13:51:01;7.40;;;1.30;;
36009;SDS011;22076;52.182;5.404;2022-10-16T13:53:30;6.78;;;1.40;;
36009;SDS011;22076;52.182;5.404;2022-10-16T13:55:58;9.88;;;1.73;;
36009;SDS011;22076;52.182;5.404;2022-10-16T13:58:26;6.63;;;1.70;;
36009;SDS011;22076;52.182;5.404;2022-10-16T14:00:54;8.38;;;1.50;;
36009;SDS011;22076;52.182;5.404;2022-10-16T14:03:22;10.40;;;2.00;;
36009;SDS011;22076;52.182;5.404;2022-10-16T14:05:50;12.73;;;1.73;;
36009;SDS011;22076;52.182;5.404;2022-10-16T14:08:17;11.27;;;2.63;;
36009;SDS011;22076;52.182;5.404;2022-10-16T14:10:47;10.48;;;3.10;;
36009;SDS011;22076;52.182;5.404;2022-10-16T14:13:15;7.80;;;2.30;;
36009;SDS011;22076;52.182;5.404;2022-10-16T14:15:45;9.18;;;3.22;;
36009;SDS011;22076;52.182;5.404;2022-10-16T14:18:15;8.73;;;2.03;;
36009;SDS011;22076;52.182;5.404;2022-10-16T14:20:46;8.30;;;1.70;;
36009;SDS011;22076;52.182;5.404;2022-10-16T14:23:19;7.93;;;1.63;;
36009;SDS011;22076;52.182;5.404;2022-10-16T14:25:47;11.38;;;1.85;;
36009;SDS011;22076;52.182;5.404;2022-10-16T14:28:15;12.95;;;2.10;;
36009;SDS011;22076;52.182;5.404;2022-10-16T14:30:49;5.97;;;1.48;;
36009;SDS011;22076;52.182;5.404;2022-10-16T14:33:24;8.50;;;1.63;;
36009;SDS011;22076;52.182;5.404;2022-10-16T14:35:59;9.18;;;2.00;;
36009;SDS011;22076;52.182;5.404;2022-10-16T14:38:30;8.20;;;2.00;;
36009;SDS011;22076;52.182;5.404;2022-10-16T14:40:58;8.57;;;1.65;;
36009;SDS011;22076;52.182;5.404;2022-10-16T14:43:27;7.95;;;1.40;;
36009;SDS011;22076;52.182;5.404;2022-10-16T14:45:56;8.25;;;1.65;;
36009;SDS011;22076;52.182;5.404;2022-10-16T14:48:25;8.48;;;1.67;;
36009;SDS011;22076;52.182;5.404;2022-10-16T14:50:51;7.30;;;1.73;;
36009;SDS011;22076;52.182;5.404;2022-10-16T14:53:18;10.80;;;2.03;;
36009;SDS011;22076;52.182;5.404;2022-10-16T14:55:47;10.27;;;1.83;;
36009;SDS011;22076;52.182;5.404;2022-10-16T14:58:15;6.93;;;1.67;;
36009;SDS011;22076;52.182;5.404;2022-10-16T15:00:43;5.97;;;1.63;;
36009;SDS011;22076;52.182;5.404;2022-10-16T15:03:09;10.70;;;2.03;;
36009;SDS011;22076;52.182;5.404;2022-10-16T15:05:38;12.80;;;2.22;;
36009;SDS011;22076;52.182;5.404;2022-10-16T15:08:06;10.02;;;2.00;;
36009;SDS011;22076;52.182;5.404;2022-10-16T15:10:33;9.25;;;1.95;;